createdAt,value
2017-08-25T00:00:10.734Z,84.34
2017-08-25T00:01:10.058Z,84.83
2017-08-25T00:02:09.751Z,84.83
2017-08-25T00:03:10.064Z,84.73
2017-08-25T00:04:09.757Z,85.11
2017-08-25T00:05:10.805Z,85.02
2017-08-25T00:06:09.760Z,85.02
2017-08-25T00:07:10.071Z,84.63
2017-08-25T00:08:10.073Z,84.54
2017-08-25T00:09:10.075Z,84.34
2017-08-25T00:10:10.645Z,84.25
2017-08-25T00:11:10.082Z,84.44
2017-08-25T00:12:10.081Z,84.25
2017-08-25T00:13:10.085Z,84.25
2017-08-25T00:14:10.087Z,84.73
2017-08-25T00:15:10.728Z,84.83
2017-08-25T00:16:10.092Z,84.83
2017-08-25T00:17:09.789Z,85.02
2017-08-25T00:18:10.097Z,84.92
2017-08-25T00:19:09.788Z,84.92
2017-08-25T00:20:10.650Z,84.54
2017-08-25T00:21:10.103Z,84.73
2017-08-25T00:22:10.107Z,85.11
2017-08-25T00:23:10.111Z,85.88
2017-08-25T00:24:10.112Z,85.21
2017-08-25T00:25:10.372Z,86.75
2017-08-25T00:26:10.116Z,86.65
2017-08-25T00:27:09.818Z,86.56
2017-08-25T00:28:09.817Z,86.08
2017-08-25T00:29:10.123Z,85.98
2017-08-25T00:30:10.757Z,86.08
2017-08-25T00:31:10.129Z,85.4
2017-08-25T00:32:09.822Z,85.02
2017-08-25T00:33:10.135Z,85.21
2017-08-25T00:34:10.139Z,85.02
2017-08-25T00:35:10.385Z,85.4
2017-08-25T00:36:10.138Z,84.92
2017-08-25T00:37:10.139Z,85.6
2017-08-25T00:38:09.834Z,85.6
2017-08-25T00:39:09.837Z,86.08
2017-08-25T00:40:10.732Z,86.08
2017-08-25T00:41:10.151Z,86.18
2017-08-25T00:42:09.845Z,85.88
2017-08-25T00:43:10.155Z,86.27
2017-08-25T00:44:09.847Z,86.27
2017-08-25T00:45:11.956Z,86.65
2017-08-25T00:46:10.161Z,86.75
2017-08-25T00:47:10.165Z,86.75
2017-08-25T00:48:10.169Z,86.08
2017-08-25T00:49:10.172Z,86.08
2017-08-25T00:50:11.124Z,85.98
2017-08-25T00:51:10.173Z,85.88
2017-08-25T00:52:10.175Z,85.98
2017-08-25T00:53:10.180Z,85.88
2017-08-25T00:54:10.183Z,86.56
2017-08-25T00:55:11.132Z,86.46
2017-08-25T00:56:10.191Z,85.84
2017-08-25T00:57:09.887Z,85.88
2017-08-25T00:58:10.200Z,86.71
2017-08-25T00:59:10.191Z,87.62
2017-08-25T01:00:10.525Z,88.1
2017-08-25T01:01:10.199Z,88.57
2017-08-25T01:02:10.208Z,88.48
2017-08-25T01:03:10.203Z,88.77
2017-08-25T01:04:10.205Z,88.87
2017-08-25T01:05:10.968Z,88.87
2017-08-25T01:06:09.901Z,88.96
2017-08-25T01:07:10.212Z,88.77
2017-08-25T01:08:10.215Z,88.48
2017-08-25T01:09:10.217Z,88.29
2017-08-25T01:10:10.379Z,88.67
2017-08-25T01:11:10.223Z,88.39
2017-08-25T01:12:10.243Z,88.29
2017-08-25T01:13:10.239Z,88.19
2017-08-25T01:14:09.920Z,88.39
2017-08-25T01:15:10.746Z,88.19
2017-08-25T01:16:10.238Z,88.19
2017-08-25T01:17:10.241Z,88.39
2017-08-25T01:18:10.265Z,88.1
2017-08-25T01:19:10.243Z,88.19
2017-08-25T01:20:10.821Z,88
2017-08-25T01:21:09.941Z,88.1
2017-08-25T01:22:10.257Z,88.1
2017-08-25T01:23:09.950Z,88.19
2017-08-25T01:24:10.262Z,88.39
2017-08-25T01:25:10.904Z,88.48
2017-08-25T01:26:10.269Z,88.57
2017-08-25T01:27:10.259Z,88.39
2017-08-25T01:28:09.957Z,88.96
2017-08-25T01:29:10.290Z,89.25
2017-08-25T01:30:10.880Z,89.25
2017-08-25T01:31:10.272Z,89.5
2017-08-25T01:32:09.964Z,90.36
2017-08-25T01:33:09.969Z,90.45
2017-08-25T01:34:10.279Z,90.75
2017-08-25T01:35:10.638Z,90.07
2017-08-25T01:36:10.285Z,90.65
2017-08-25T01:37:10.284Z,90.55
2017-08-25T01:38:10.286Z,90.75
2017-08-25T01:39:09.981Z,90.59
2017-08-25T01:40:11.148Z,90.69
2017-08-25T01:41:10.294Z,91.32
2017-08-25T01:42:10.296Z,91.13
2017-08-25T01:43:09.989Z,91.56
2017-08-25T01:44:10.300Z,91.17
2017-08-25T01:45:11.022Z,91.17
2017-08-25T01:46:13.251Z,91.17
2017-08-25T01:47:10.314Z,91.36
2017-08-25T01:48:10.007Z,91.36
2017-08-25T01:49:10.313Z,91.56
2017-08-25T01:50:10.825Z,91.56
2017-08-25T01:51:10.008Z,91.66
2017-08-25T01:52:10.320Z,92.04
2017-08-25T01:53:10.014Z,93
2017-08-25T01:54:10.017Z,92.81
2017-08-25T01:55:10.741Z,92.71
2017-08-25T01:56:10.327Z,92.43
2017-08-25T01:57:10.020Z,92.61
2017-08-25T01:58:10.332Z,92.61
2017-08-25T01:59:10.334Z,92.29
2017-08-25T02:00:10.828Z,92.61
2017-08-25T02:01:10.343Z,92.43
2017-08-25T02:02:10.341Z,92.81
2017-08-25T02:03:10.344Z,92.81
2017-08-25T02:04:10.038Z,92.52
2017-08-25T02:05:10.754Z,92.71
2017-08-25T02:06:10.352Z,92.91
2017-08-25T02:07:10.050Z,92.91
2017-08-25T02:08:10.369Z,92.43
2017-08-25T02:09:10.364Z,92.33
2017-08-25T02:10:11.188Z,92.61
2017-08-25T02:11:10.055Z,92.43
2017-08-25T02:12:10.367Z,92.57
2017-08-25T02:13:10.369Z,92.43
2017-08-25T02:14:10.381Z,92.29
2017-08-25T02:15:11.144Z,92.43
2017-08-25T02:16:10.381Z,92.23
2017-08-25T02:17:10.070Z,91.99
2017-08-25T02:18:10.078Z,92.23
2017-08-25T02:19:10.386Z,91.75
2017-08-25T02:20:11.019Z,91.75
2017-08-25T02:21:10.389Z,90.98
2017-08-25T02:22:10.390Z,91.17
2017-08-25T02:23:10.400Z,91.17
2017-08-25T02:24:10.096Z,90.98
2017-08-25T02:25:11.151Z,91.61
2017-08-25T02:26:10.092Z,92.13
2017-08-25T02:27:10.400Z,91.8
2017-08-25T02:28:10.405Z,91.9
2017-08-25T02:29:10.097Z,92.47
2017-08-25T02:30:10.934Z,92.86
2017-08-25T02:31:10.412Z,92.57
2017-08-25T02:32:10.419Z,93.05
2017-08-25T02:33:10.415Z,93.63
2017-08-25T02:34:10.115Z,93.24
2017-08-25T02:35:10.817Z,93.53
2017-08-25T02:36:10.119Z,93.44
2017-08-25T02:37:10.120Z,93.39
2017-08-25T02:38:10.428Z,93.68
2017-08-25T02:39:10.427Z,93.53
2017-08-25T02:40:11.155Z,94.01
2017-08-25T02:41:10.431Z,94.16
2017-08-25T02:42:10.437Z,94.26
2017-08-25T02:43:10.127Z,93.82
2017-08-25T02:44:10.130Z,94.16
2017-08-25T02:45:10.748Z,94.49
2017-08-25T02:46:10.445Z,94.06
2017-08-25T02:47:10.446Z,93.49
2017-08-25T02:48:10.449Z,93.44
2017-08-25T02:49:10.448Z,92.76
2017-08-25T02:50:10.857Z,92.76
2017-08-25T02:51:10.452Z,92.29
2017-08-25T02:52:10.454Z,91.9
2017-08-25T02:53:10.457Z,91.99
2017-08-25T02:54:10.468Z,91.32
2017-08-25T02:55:11.365Z,91.61
2017-08-25T02:56:10.463Z,91.52
2017-08-25T02:57:10.469Z,91.42
2017-08-25T02:58:10.474Z,91.52
2017-08-25T02:59:10.473Z,91.61
2017-08-25T03:00:11.406Z,92.09
2017-08-25T03:01:10.474Z,92.09
2017-08-25T03:02:10.477Z,92.09
2017-08-25T03:03:10.169Z,91.42
2017-08-25T03:04:10.480Z,91.8
2017-08-25T03:05:10.716Z,92.19
2017-08-25T03:06:10.500Z,91.8
2017-08-25T03:07:10.178Z,92.09
2017-08-25T03:08:10.487Z,90.94
2017-08-25T03:09:10.490Z,91.03
2017-08-25T03:10:11.187Z,90.45
2017-08-25T03:11:10.495Z,90.84
2017-08-25T03:12:10.188Z,90.79
2017-08-25T03:13:10.498Z,90.79
2017-08-25T03:14:10.516Z,90.89
2017-08-25T03:15:11.178Z,90.65
2017-08-25T03:16:10.508Z,90.07
2017-08-25T03:17:11.309Z,90.98
2017-08-25T03:18:10.512Z,89.92
2017-08-25T03:19:10.520Z,90.55
2017-08-25T03:20:11.360Z,91.13
2017-08-25T03:21:10.516Z,91.13
2017-08-25T03:22:10.209Z,91.99
2017-08-25T03:23:10.212Z,92.38
2017-08-25T03:24:10.227Z,92.76
2017-08-25T03:25:11.252Z,93.34
2017-08-25T03:26:10.226Z,93.96
2017-08-25T03:27:10.533Z,94.45
2017-08-25T03:28:10.551Z,94.64
2017-08-25T03:29:10.227Z,94.35
2017-08-25T03:30:11.023Z,94.54
2017-08-25T03:31:10.569Z,94.45
2017-08-25T03:32:10.536Z,93.77
2017-08-25T03:33:10.541Z,94.26
2017-08-25T03:34:10.232Z,94.45
2017-08-25T03:35:11.422Z,93.77
2017-08-25T03:36:10.233Z,93.96
2017-08-25T03:37:10.546Z,93.77
2017-08-25T03:38:10.554Z,94.49
2017-08-25T03:39:10.556Z,93.96
2017-08-25T03:40:10.956Z,94.35
2017-08-25T03:41:10.555Z,93.77
2017-08-25T03:42:10.249Z,94.64
2017-08-25T03:43:10.558Z,94.45
2017-08-25T03:44:10.561Z,94.73
2017-08-25T03:45:11.418Z,95.03
2017-08-25T03:46:10.253Z,95.31
2017-08-25T03:47:10.563Z,95.89
2017-08-25T03:48:10.567Z,95.84
2017-08-25T03:49:10.570Z,96.61
2017-08-25T03:50:10.940Z,96.61
2017-08-25T03:51:10.570Z,96.8
2017-08-25T03:52:10.577Z,96.8
2017-08-25T03:53:10.575Z,96.51
2017-08-25T03:54:10.579Z,96.61
2017-08-25T03:55:11.367Z,97.47
2017-08-25T03:56:10.582Z,97.38
2017-08-25T03:57:10.589Z,97.61
2017-08-25T03:58:10.588Z,96.99
2017-08-25T03:59:10.586Z,97.61
2017-08-25T04:00:11.397Z,97.52
2017-08-25T04:01:10.588Z,97.71
2017-08-25T04:02:10.586Z,98.1
2017-08-25T04:03:10.331Z,98.19
2017-08-25T04:04:10.593Z,98.1
2017-08-25T04:05:11.533Z,98.1
2017-08-25T04:06:10.591Z,97.91
2017-08-25T04:07:10.288Z,97.81
2017-08-25T04:08:10.595Z,98.1
2017-08-25T04:09:10.599Z,98.38
2017-08-25T04:10:11.461Z,97.91
2017-08-25T04:11:10.600Z,98.29
2017-08-25T04:12:10.611Z,97.33
2017-08-25T04:13:10.613Z,97.61
2017-08-25T04:14:10.621Z,97.61
2017-08-25T04:15:10.873Z,98.19
2017-08-25T04:16:10.304Z,98
2017-08-25T04:17:10.626Z,97.42
2017-08-25T04:18:11.724Z,98.19
2017-08-25T04:19:10.306Z,98.29
2017-08-25T04:20:10.954Z,97.47
2017-08-25T04:21:10.618Z,97.19
2017-08-25T04:22:10.614Z,97.28
2017-08-25T04:23:10.625Z,96.7
2017-08-25T04:24:10.619Z,96.61
2017-08-25T04:25:11.428Z,96.7
2017-08-25T04:26:10.707Z,96.7
2017-08-25T04:27:10.626Z,96.8
2017-08-25T04:28:10.622Z,97.47
2017-08-25T04:29:10.637Z,97.66
2017-08-25T04:30:10.984Z,97.24
2017-08-25T04:31:10.323Z,97.42
2017-08-25T04:32:10.641Z,97.91
2017-08-25T04:33:10.636Z,97.42
2017-08-25T04:34:10.634Z,98.19
2017-08-25T04:35:11.517Z,98.48
2017-08-25T04:36:10.635Z,98.67
2017-08-25T04:37:10.331Z,98.19
2017-08-25T04:38:10.635Z,97.33
2017-08-25T04:39:10.639Z,98
2017-08-25T04:40:11.588Z,97.42
2017-08-25T04:41:10.641Z,98
2017-08-25T04:42:10.330Z,98.19
2017-08-25T04:43:10.641Z,97.33
2017-08-25T04:44:10.643Z,97.71
2017-08-25T04:45:11.039Z,98.38
2017-08-25T04:46:10.644Z,98.29
2017-08-25T04:47:10.649Z,97.42
2017-08-25T04:48:13.902Z,97.52
2017-08-25T04:49:10.342Z,97.61
2017-08-25T04:50:10.981Z,97.52
2017-08-25T04:51:10.651Z,97.61
2017-08-25T04:52:10.660Z,97.76
2017-08-25T04:53:10.355Z,96.99
2017-08-25T04:54:10.349Z,96.8
2017-08-25T04:55:11.358Z,96.03
2017-08-25T04:56:10.350Z,95.26
2017-08-25T04:57:10.667Z,94.98
2017-08-25T04:58:10.352Z,94.59
2017-08-25T04:59:10.674Z,94.26
2017-08-25T05:00:11.165Z,93.96
2017-08-25T05:01:10.356Z,93.68
2017-08-25T05:02:10.671Z,93.19
2017-08-25T05:03:10.670Z,92.81
2017-08-25T05:04:10.674Z,92.81
2017-08-25T05:05:11.093Z,92.43
2017-08-25T05:06:10.683Z,92.62
2017-08-25T05:07:10.683Z,92.33
2017-08-25T05:08:10.688Z,92.19
2017-08-25T05:09:10.687Z,91.61
2017-08-25T05:10:11.146Z,90.65
2017-08-25T05:11:10.691Z,90.17
2017-08-25T05:12:10.687Z,88.77
2017-08-25T05:13:10.385Z,88.29
2017-08-25T05:14:10.691Z,87.62
2017-08-25T05:15:11.598Z,87.62
2017-08-25T05:16:10.694Z,87.18
2017-08-25T05:17:10.699Z,87.66
2017-08-25T05:18:10.706Z,87.62
2017-08-25T05:19:10.704Z,87.81
2017-08-25T05:20:11.578Z,88.39
2017-08-25T05:21:10.708Z,88.48
2017-08-25T05:22:10.708Z,88.87
2017-08-25T05:23:10.402Z,89.59
2017-08-25T05:24:10.714Z,89.21
2017-08-25T05:25:11.733Z,89.78
2017-08-25T05:26:10.411Z,89.5
2017-08-25T05:27:10.721Z,89.4
2017-08-25T05:28:10.414Z,89.88
2017-08-25T05:29:10.731Z,89.11
2017-08-25T05:30:11.090Z,88.82
2017-08-25T05:31:10.728Z,88.87
2017-08-25T05:32:10.422Z,88.77
2017-08-25T05:33:10.732Z,88.48
2017-08-25T05:34:10.737Z,88.29
2017-08-25T05:35:11.660Z,88.1
2017-08-25T05:36:10.742Z,88.67
2017-08-25T05:37:10.432Z,88.48
2017-08-25T05:38:10.751Z,88.19
2017-08-25T05:39:10.439Z,88.39
2017-08-25T05:40:11.242Z,88.19
2017-08-25T05:41:10.441Z,88.67
2017-08-25T05:42:10.445Z,89.15
2017-08-25T05:43:10.758Z,89.21
2017-08-25T05:44:10.768Z,88.96
2017-08-25T05:45:11.816Z,89.44
2017-08-25T05:46:10.767Z,88.87
2017-08-25T05:47:10.460Z,87.71
2017-08-25T05:48:10.768Z,86.56
2017-08-25T05:49:11.572Z,85.93
2017-08-25T05:50:11.846Z,86.12
2017-08-25T05:51:10.777Z,85.64
2017-08-25T05:52:10.780Z,86.02
2017-08-25T05:53:10.475Z,85.64
2017-08-25T05:54:10.477Z,85.93
2017-08-25T05:55:11.898Z,85.93
2017-08-25T05:56:10.787Z,85.93
2017-08-25T05:57:10.481Z,85.35
2017-08-25T05:58:10.484Z,85.44
2017-08-25T05:59:10.487Z,85.44
2017-08-25T06:00:11.221Z,85.25
2017-08-25T06:01:10.802Z,84.29
2017-08-25T06:02:10.811Z,84.23
2017-08-25T06:03:10.499Z,84.33
2017-08-25T06:04:10.869Z,84.05
2017-08-25T06:05:11.145Z,84.23
2017-08-25T06:06:10.818Z,83.75
2017-08-25T06:07:10.511Z,84.14
2017-08-25T06:08:10.824Z,84.53
2017-08-25T06:09:10.826Z,84.1
2017-08-25T06:10:11.196Z,84.72
2017-08-25T06:11:10.837Z,84.43
2017-08-25T06:12:10.836Z,85.25
2017-08-25T06:13:10.837Z,84.67
2017-08-25T06:14:10.846Z,84.97
2017-08-25T06:15:11.313Z,85.74
2017-08-25T06:16:10.849Z,85.06
2017-08-25T06:17:10.851Z,84.87
2017-08-25T06:18:10.854Z,84.53
2017-08-25T06:19:12.907Z,83.75
2017-08-25T06:20:11.253Z,83.37
2017-08-25T06:21:10.862Z,82.89
2017-08-25T06:22:10.865Z,82.26
2017-08-25T06:23:10.869Z,81.1
2017-08-25T06:24:10.870Z,79.98
2017-08-25T06:25:10.878Z,79.31
2017-08-25T06:26:10.878Z,78.48
2017-08-25T06:27:10.883Z,77.51
2017-08-25T06:28:10.888Z,76.5
2017-08-25T06:29:10.890Z,74.51
2017-08-25T06:30:11.402Z,73.19
2017-08-25T06:31:10.590Z,72.22
2017-08-25T06:32:10.903Z,71.58
2017-08-25T06:33:10.907Z,70.52
2017-08-25T06:34:10.914Z,70.04
2017-08-25T06:35:11.928Z,68.52
2017-08-25T06:36:10.924Z,68.27
2017-08-25T06:37:10.925Z,67.79
2017-08-25T06:38:10.622Z,66.85
2017-08-25T06:39:10.935Z,66.08
2017-08-25T06:40:11.934Z,65.3
2017-08-25T06:41:10.946Z,65.24
2017-08-25T06:42:10.966Z,64.37
2017-08-25T06:43:10.651Z,64.07
2017-08-25T06:44:10.964Z,64.37
2017-08-25T06:45:11.477Z,64.27
2017-08-25T06:46:10.981Z,62.95
2017-08-25T06:47:10.984Z,62.95
2017-08-25T06:48:10.984Z,62.85
2017-08-25T06:49:10.990Z,61.52
2017-08-25T06:50:11.874Z,61.72
2017-08-25T06:51:10.693Z,61.72
2017-08-25T06:52:10.697Z,61.43
2017-08-25T06:53:11.015Z,61.04
2017-08-25T06:54:11.020Z,61.14
2017-08-25T06:55:12.157Z,60.58
2017-08-25T06:56:10.736Z,60.49
2017-08-25T06:57:11.040Z,59.71
2017-08-25T06:58:11.045Z,58.77
2017-08-25T06:59:11.061Z,59.16
2017-08-25T07:00:12.496Z,58.61
2017-08-25T07:01:11.068Z,57.64
2017-08-25T07:02:11.076Z,57.64
2017-08-25T07:03:11.076Z,58.48
2017-08-25T07:04:11.094Z,58.87
2017-08-25T07:05:12.374Z,60.1
2017-08-25T07:06:11.101Z,61.33
2017-08-25T07:07:11.101Z,62.27
2017-08-25T07:08:10.800Z,63.34
2017-08-25T07:09:11.113Z,64.75
2017-08-25T07:10:15.162Z,65.4
2017-08-25T07:11:11.128Z,66.14
2017-08-25T07:12:10.833Z,67.3
2017-08-25T07:13:10.830Z,67.85
2017-08-25T07:14:10.843Z,69.01
2017-08-25T07:15:12.653Z,68.98
2017-08-25T07:16:10.843Z,69.17
2017-08-25T07:17:11.161Z,68.98
2017-08-25T07:18:11.166Z,67.66
2017-08-25T07:19:11.168Z,66.91
2017-08-25T07:20:13.778Z,65.59
2017-08-25T07:21:11.180Z,65.3
2017-08-25T07:22:11.184Z,64.07
2017-08-25T07:23:11.189Z,63.72
2017-08-25T07:24:10.889Z,63.04
2017-08-25T07:25:11.736Z,62.1
2017-08-25T07:26:10.909Z,61.82
2017-08-25T07:27:10.904Z,61.33
2017-08-25T07:28:11.220Z,61.43
2017-08-25T07:29:11.227Z,62.69
2017-08-25T07:30:11.889Z,63.14
2017-08-25T07:31:11.247Z,63.62
2017-08-25T07:32:11.241Z,64.27
2017-08-25T07:33:11.250Z,65.14
2017-08-25T07:34:11.253Z,65.3
2017-08-25T07:35:12.020Z,65.79
2017-08-25T07:36:11.263Z,65.88
2017-08-25T07:37:11.267Z,65.05
2017-08-25T07:38:11.283Z,64.27
2017-08-25T07:39:11.281Z,61.98
2017-08-25T07:40:12.225Z,61.14
2017-08-25T07:41:11.288Z,59.36
2017-08-25T07:42:11.297Z,57.54
2017-08-25T07:43:11.303Z,56.6
2017-08-25T07:44:10.999Z,55.85
2017-08-25T07:45:11.992Z,55.78
2017-08-25T07:46:11.320Z,56.62
2017-08-25T07:47:11.326Z,57.67
2017-08-25T07:48:11.330Z,58.61
2017-08-25T07:49:11.029Z,59.45
2017-08-25T07:50:12.561Z,58.97
2017-08-25T07:51:11.348Z,58.22
2017-08-25T07:52:11.354Z,57.73
2017-08-25T07:53:11.366Z,57.08
2017-08-25T07:54:11.367Z,55.75
2017-08-25T07:55:12.280Z,54.42
2017-08-25T07:56:11.070Z,54.25
2017-08-25T07:57:11.076Z,53.77
2017-08-25T07:58:11.397Z,53.77
2017-08-25T07:59:11.398Z,52.62
2017-08-25T08:00:12.561Z,51.39
2017-08-25T08:01:11.412Z,51.09
2017-08-25T08:02:11.425Z,51.09
2017-08-25T08:03:11.121Z,50.92
2017-08-25T08:04:11.433Z,50.34
2017-08-25T08:05:12.846Z,49.58
2017-08-25T08:06:11.456Z,49.19
2017-08-25T08:07:11.453Z,48.73
2017-08-25T08:08:11.463Z,48.46
2017-08-25T08:09:11.479Z,47.29
2017-08-25T08:10:12.250Z,46.34
2017-08-25T08:11:11.484Z,45.78
2017-08-25T08:12:11.184Z,45.19
2017-08-25T08:13:11.193Z,45.21
2017-08-25T08:14:11.205Z,45.41
2017-08-25T08:15:12.815Z,45.31
2017-08-25T08:16:11.526Z,44.82
2017-08-25T08:17:11.224Z,45.02
2017-08-25T08:18:11.229Z,44.92
2017-08-25T08:19:11.546Z,45.41
2017-08-25T08:20:12.036Z,45.21
2017-08-25T08:21:18.376Z,45.41
2017-08-25T08:22:11.261Z,45.87
2017-08-25T08:23:11.583Z,46.17
2017-08-25T08:24:11.590Z,45.87
2017-08-25T08:25:12.038Z,46.04
2017-08-25T08:26:11.604Z,45.58
2017-08-25T08:27:11.304Z,45.68
2017-08-25T08:28:11.620Z,45.02
2017-08-25T08:29:11.321Z,44.94
2017-08-25T08:30:12.244Z,44.26
2017-08-25T08:31:11.348Z,43.4
2017-08-25T08:32:11.657Z,43.89
2017-08-25T08:33:11.662Z,44.16
2017-08-25T08:34:11.363Z,43.59
2017-08-25T08:35:12.423Z,43.59
2017-08-25T08:36:11.697Z,44.06
2017-08-25T08:37:11.698Z,44.06
2017-08-25T08:38:11.397Z,45.43
2017-08-25T08:39:11.720Z,46.85
2017-08-25T08:40:12.969Z,47.71
2017-08-25T08:41:11.735Z,48.85
2017-08-25T08:42:11.431Z,49.97
2017-08-25T08:43:11.755Z,50.82
2017-08-25T08:44:11.770Z,51.58
2017-08-25T08:45:13.194Z,52.75
2017-08-25T08:46:11.772Z,53.4
2017-08-25T08:47:11.780Z,54.57
2017-08-25T08:48:11.788Z,54.54
2017-08-25T08:49:11.486Z,55.8
2017-08-25T08:50:13.024Z,56.07
2017-08-25T08:51:11.516Z,56.24
2017-08-25T08:52:11.514Z,56.24
2017-08-25T08:53:11.521Z,56.24
2017-08-25T08:54:11.529Z,56.52
2017-08-25T08:55:12.936Z,56.43
2017-08-25T08:56:11.538Z,57.6
2017-08-25T08:57:11.860Z,56.7
2017-08-25T08:58:11.551Z,56.62
2017-08-25T08:59:11.866Z,56.72
2017-08-25T09:00:13.020Z,56.62
2017-08-25T09:01:11.886Z,57.21
2017-08-25T09:02:11.582Z,57.11
2017-08-25T09:03:11.912Z,57.11
2017-08-25T09:04:11.902Z,57.4
2017-08-25T09:05:13.024Z,57.69
2017-08-25T09:06:11.911Z,58.34
2017-08-25T09:07:11.919Z,58.15
2017-08-25T09:08:11.926Z,57.37
2017-08-25T09:09:11.933Z,56.92
2017-08-25T09:10:13.327Z,57.4
2017-08-25T09:11:11.947Z,57.01
2017-08-25T09:12:11.963Z,57.4
2017-08-25T09:13:11.648Z,57.4
2017-08-25T09:14:11.651Z,57.5
2017-08-25T09:15:13.169Z,56.75
2017-08-25T09:16:11.981Z,58.57
2017-08-25T09:17:11.672Z,57.6
2017-08-25T09:18:11.985Z,57.5
2017-08-25T09:19:11.995Z,57.31
2017-08-25T09:20:12.761Z,57.98
2017-08-25T09:21:12.008Z,57.43
2017-08-25T09:22:16.318Z,56.75
2017-08-25T09:23:11.710Z,56.36
2017-08-25T09:24:12.022Z,57.14
2017-08-25T09:25:13.189Z,55.98
2017-08-25T09:26:11.730Z,55.49
2017-08-25T09:27:12.041Z,55.22
2017-08-25T09:28:11.736Z,55.68
2017-08-25T09:29:12.052Z,55.51
2017-08-25T09:30:12.865Z,56
2017-08-25T09:31:12.061Z,55.51
2017-08-25T09:32:11.772Z,54.93
2017-08-25T09:33:12.077Z,55.9
2017-08-25T09:34:12.080Z,54.44
2017-08-25T09:35:13.326Z,54.74
2017-08-25T09:36:11.791Z,54.83
2017-08-25T09:37:12.105Z,54.35
2017-08-25T09:38:12.104Z,54.35
2017-08-25T09:39:11.809Z,54.05
2017-08-25T09:40:13.433Z,53.59
2017-08-25T09:41:12.126Z,54.28
2017-08-25T09:42:11.830Z,55.41
2017-08-25T09:43:12.135Z,54.93
2017-08-25T09:44:12.138Z,55.13
2017-08-25T09:45:12.697Z,54.57
2017-08-25T09:46:11.843Z,54.54
2017-08-25T09:47:12.164Z,53.5
2017-08-25T09:48:11.860Z,53.4
2017-08-25T09:49:11.865Z,52.84
2017-08-25T09:50:12.671Z,53.23
2017-08-25T09:51:11.875Z,52.45
2017-08-25T09:52:12.188Z,53.14
2017-08-25T09:53:12.199Z,54.01
2017-08-25T09:54:12.212Z,53.81
2017-08-25T09:55:12.856Z,53.33
2017-08-25T09:56:11.903Z,52.55
2017-08-25T09:57:12.218Z,52.45
2017-08-25T09:58:12.233Z,52.94
2017-08-25T09:59:12.232Z,52.45
2017-08-25T10:00:12.660Z,52.16
2017-08-25T10:01:12.249Z,54.69
2017-08-25T10:02:12.251Z,54.01
2017-08-25T10:03:12.258Z,53.33
2017-08-25T10:04:12.262Z,52.65
2017-08-25T10:05:13.051Z,51.77
2017-08-25T10:06:11.970Z,51.61
2017-08-25T10:07:11.971Z,52.38
2017-08-25T10:08:11.982Z,52.97
2017-08-25T10:09:12.299Z,52.77
2017-08-25T10:10:13.501Z,51.7
2017-08-25T10:11:12.001Z,52.09
2017-08-25T10:12:12.313Z,51.41
2017-08-25T10:13:12.321Z,51.12
2017-08-25T10:14:12.326Z,51.8
2017-08-25T10:15:13.153Z,52.97
2017-08-25T10:16:12.342Z,53.45
2017-08-25T10:17:12.341Z,54.13
2017-08-25T10:18:12.047Z,53.23
2017-08-25T10:19:12.354Z,53.65
2017-08-25T10:20:12.900Z,52.97
2017-08-25T10:21:12.375Z,53.33
2017-08-25T10:22:12.377Z,54.01
2017-08-25T10:23:12.072Z,54.89
2017-08-25T10:24:12.384Z,53.91
2017-08-25T10:25:12.992Z,54.01
2017-08-25T10:26:12.099Z,53.42
2017-08-25T10:27:12.407Z,54.01
2017-08-25T10:28:12.413Z,54.38
2017-08-25T10:29:12.108Z,55.35
2017-08-25T10:30:13.416Z,55.35
2017-08-25T10:31:12.121Z,56.12
2017-08-25T10:32:12.436Z,54.86
2017-08-25T10:33:12.133Z,55.44
2017-08-25T10:34:12.138Z,55.64
2017-08-25T10:35:13.640Z,54.21
2017-08-25T10:36:12.467Z,54.11
2017-08-25T10:37:12.464Z,53.06
2017-08-25T10:38:12.212Z,52.87
2017-08-25T10:39:12.480Z,53.94
2017-08-25T10:40:13.655Z,54.26
2017-08-25T10:41:12.504Z,53.19
2017-08-25T10:42:12.496Z,53.38
2017-08-25T10:43:12.499Z,52.99
2017-08-25T10:44:12.507Z,52.12
2017-08-25T10:45:13.499Z,51.43
2017-08-25T10:46:12.524Z,52.34
2017-08-25T10:47:12.218Z,51.26
2017-08-25T10:48:12.224Z,52.92
2017-08-25T10:49:12.539Z,52.22
2017-08-25T10:50:13.609Z,52.6
2017-08-25T10:51:12.551Z,51.82
2017-08-25T10:52:12.249Z,52.02
2017-08-25T10:53:13.055Z,52.6
2017-08-25T10:54:12.569Z,53.09
2017-08-25T10:55:13.283Z,53.09
2017-08-25T10:56:12.273Z,53.85
2017-08-25T10:57:12.593Z,53.06
2017-08-25T10:58:12.596Z,53.94
2017-08-25T10:59:12.606Z,52.97
2017-08-25T11:00:13.235Z,54.03
2017-08-25T11:01:12.890Z,52.67
2017-08-25T11:02:12.617Z,52.87
2017-08-25T11:03:12.636Z,54.03
2017-08-25T11:04:12.639Z,54.23
2017-08-25T11:05:13.233Z,53.94
2017-08-25T11:06:12.648Z,54.13
2017-08-25T11:07:12.344Z,53.09
2017-08-25T11:08:12.660Z,52.4
2017-08-25T11:09:12.662Z,52.7
2017-08-25T11:10:13.821Z,51.34
2017-08-25T11:11:12.681Z,51.46
2017-08-25T11:12:12.374Z,52.04
2017-08-25T11:13:12.689Z,51.75
2017-08-25T11:14:12.695Z,51.36
2017-08-25T11:15:13.364Z,50.97
2017-08-25T11:16:12.710Z,50.78
2017-08-25T11:17:12.403Z,51.26
2017-08-25T11:18:12.413Z,51.95
2017-08-25T11:19:12.730Z,51.75
2017-08-25T11:20:13.949Z,51.75
2017-08-25T11:21:12.753Z,51.85
2017-08-25T11:22:12.756Z,51.09
2017-08-25T11:23:14.544Z,50.99
2017-08-25T11:24:12.759Z,50.51
2017-08-25T11:25:14.059Z,50.41
2017-08-25T11:26:12.774Z,49.63
2017-08-25T11:27:12.777Z,49.63
2017-08-25T11:28:12.784Z,49.73
2017-08-25T11:29:12.791Z,49.15
2017-08-25T11:30:13.972Z,51.19
2017-08-25T11:31:12.804Z,50.43
2017-08-25T11:32:12.814Z,51.39
2017-08-25T11:33:12.820Z,50.53
2017-08-25T11:34:12.831Z,50.24
2017-08-25T11:35:14.086Z,49.85
2017-08-25T11:36:12.838Z,49.85
2017-08-25T11:37:12.847Z,49.17
2017-08-25T11:38:12.860Z,49.17
2017-08-25T11:39:12.867Z,49.56
2017-08-25T11:40:14.194Z,49.76
2017-08-25T11:41:12.559Z,49.66
2017-08-25T11:42:12.568Z,50.24
2017-08-25T11:43:12.574Z,51.7
2017-08-25T11:44:12.582Z,51.12
2017-08-25T11:45:14.052Z,51.21
2017-08-25T11:46:12.901Z,51.12
2017-08-25T11:47:12.920Z,50.14
2017-08-25T11:48:12.926Z,50.21
2017-08-25T11:49:12.930Z,50.7
2017-08-25T11:50:14.063Z,50.21
2017-08-25T11:51:12.935Z,50.21
2017-08-25T11:52:12.635Z,50.31
2017-08-25T11:53:12.967Z,50.6
2017-08-25T11:54:12.642Z,50.04
2017-08-25T11:55:13.939Z,50.53
2017-08-25T11:56:12.966Z,49.98
2017-08-25T11:57:12.974Z,49.66
2017-08-25T11:58:12.982Z,49.37
2017-08-25T11:59:12.992Z,49.37
2017-08-25T12:00:13.658Z,49.66
2017-08-25T12:01:13.002Z,49.46
2017-08-25T12:02:13.005Z,49.76
2017-08-25T12:03:12.704Z,50.24
2017-08-25T12:04:12.717Z,50.24
2017-08-25T12:05:13.916Z,49.66
2017-08-25T12:06:13.035Z,49.56
2017-08-25T12:07:13.041Z,49.56
2017-08-25T12:08:13.048Z,51.21
2017-08-25T12:09:12.745Z,50.73
2017-08-25T12:10:14.413Z,51.51
2017-08-25T12:11:13.087Z,51.7
2017-08-25T12:12:12.771Z,51.02
2017-08-25T12:13:13.077Z,51.31
2017-08-25T12:14:13.086Z,50.99
2017-08-25T12:15:13.810Z,51.41
2017-08-25T12:16:13.107Z,51.21
2017-08-25T12:17:12.806Z,49.66
2017-08-25T12:18:12.805Z,51.21
2017-08-25T12:19:13.114Z,50.24
2017-08-25T12:20:13.882Z,51.21
2017-08-25T12:21:12.824Z,51.02
2017-08-25T12:22:13.138Z,50.53
2017-08-25T12:23:12.835Z,50.24
2017-08-25T12:24:13.041Z,49.85
2017-08-25T12:25:14.480Z,51.21
2017-08-25T12:26:13.167Z,50.73
2017-08-25T12:27:13.171Z,51.02
2017-08-25T12:28:12.867Z,51.39
2017-08-25T12:29:13.194Z,51.29
2017-08-25T12:30:13.980Z,51.68
2017-08-25T12:31:13.195Z,52.26
2017-08-25T12:32:13.211Z,51.68
2017-08-25T12:33:13.209Z,51.29
2017-08-25T12:34:13.216Z,51.7
2017-08-25T12:35:14.409Z,51.02
2017-08-25T12:36:13.227Z,49.66
2017-08-25T12:37:13.251Z,50.82
2017-08-25T12:38:13.240Z,50.73
2017-08-25T12:39:12.949Z,51.31
2017-08-25T12:40:14.264Z,49.85
2017-08-25T12:41:12.952Z,51.12
2017-08-25T12:42:13.269Z,50.14
2017-08-25T12:43:13.275Z,50.82
2017-08-25T12:44:12.973Z,51.12
2017-08-25T12:45:14.201Z,50.63
2017-08-25T12:46:13.293Z,50.04
2017-08-25T12:47:13.299Z,50.34
2017-08-25T12:48:12.998Z,49.76
2017-08-25T12:49:13.324Z,50.53
2017-08-25T12:50:14.143Z,50.34
2017-08-25T12:51:13.336Z,50.53
2017-08-25T12:52:13.343Z,51.34
2017-08-25T12:53:13.039Z,50.24
2017-08-25T12:54:13.493Z,51.02
2017-08-25T12:55:14.439Z,50.24